createdAt,value
2022-08-21T00:02:40.223Z,16.38
2022-08-21T00:07:45.455Z,16.31
2022-08-21T00:12:50.521Z,16.24
2022-08-21T00:17:52.525Z,16.17
2022-08-21T00:22:57.574Z,16.19
2022-08-21T00:27:59.714Z,16.20
2022-08-21T00:33:07.090Z,16.21
2022-08-21T00:38:10.964Z,16.19
2022-08-21T00:43:18.243Z,16.18
2022-08-21T00:48:20.184Z,16.17
2022-08-21T00:53:22.579Z,16.12
2022-08-21T00:58:27.681Z,16.12
2022-08-21T01:03:30.430Z,16.12
2022-08-21T01:08:34.249Z,16.14
2022-08-21T01:13:39.316Z,16.15
2022-08-21T01:18:45.905Z,16.16
2022-08-21T01:23:50.638Z,16.16
2022-08-21T01:29:00.877Z,16.15
2022-08-21T01:34:04.898Z,16.13
2022-08-21T01:39:10.157Z,16.09
2022-08-21T01:44:11.950Z,16.01
2022-08-21T01:49:16.214Z,16.00
2022-08-21T01:54:19.379Z,15.99
2022-08-21T01:59:24.843Z,15.99
2022-08-21T02:04:26.628Z,16.00
2022-08-21T02:09:30.863Z,16.02
2022-08-21T02:14:37.912Z,16.08
2022-08-21T02:19:42.003Z,16.05
2022-08-21T02:24:54.801Z,16.00
2022-08-21T02:29:58.676Z,15.96
2022-08-21T02:35:02.716Z,15.96
2022-08-21T02:40:07.421Z,16.00
2022-08-21T02:45:09.651Z,16.02
2022-08-21T02:50:13.805Z,16.01
2022-08-21T02:55:21.853Z,15.97
2022-08-21T03:00:27.029Z,15.87
2022-08-21T03:05:32.247Z,15.72
2022-08-21T03:10:35.671Z,15.60
2022-08-21T03:15:41.026Z,15.47
2022-08-21T03:20:43.357Z,15.37
2022-08-21T03:25:49.258Z,15.27
2022-08-21T03:30:55.093Z,15.18
2022-08-21T03:36:05.670Z,15.14
2022-08-21T03:41:12.160Z,15.05
2022-08-21T03:46:14.797Z,14.98
2022-08-21T03:51:16.654Z,14.91
2022-08-21T03:56:20.859Z,14.87
2022-08-21T04:01:22.643Z,14.78
2022-08-21T04:06:24.607Z,14.69
2022-08-21T04:11:28.273Z,14.62
2022-08-21T04:16:32.298Z,14.58
2022-08-21T04:21:38.128Z,14.54
2022-08-21T04:26:44.920Z,14.55
2022-08-21T04:31:46.632Z,14.49
2022-08-21T04:36:48.410Z,14.43
2022-08-21T04:41:50.336Z,14.43
2022-08-21T04:46:52.632Z,14.47
2022-08-21T04:51:57.260Z,14.50
2022-08-21T04:57:06.326Z,14.54
2022-08-21T05:02:09.747Z,14.97
2022-08-21T05:07:41.659Z,14.87
2022-08-21T05:12:43.936Z,14.90
2022-08-21T05:17:53.736Z,14.94
2022-08-21T05:23:15.228Z,15.02
2022-08-21T05:28:16.987Z,15.14
2022-08-21T05:33:23.576Z,15.28
2022-08-21T05:38:29.417Z,15.38
2022-08-21T05:43:31.495Z,15.55
2022-08-21T05:48:33.633Z,15.68
2022-08-21T05:53:36.318Z,15.84
2022-08-21T05:58:38.410Z,15.96
2022-08-21T06:03:43.746Z,16.09
2022-08-21T06:08:47.979Z,16.25
2022-08-21T06:13:53.299Z,16.42
2022-08-21T06:19:00.727Z,16.59
2022-08-21T06:24:05.809Z,16.78
2022-08-21T06:29:08.565Z,16.94
2022-08-21T06:34:12.589Z,17.11
2022-08-21T06:39:16.604Z,17.23
2022-08-21T06:44:27.656Z,17.39
2022-08-21T06:49:31.654Z,17.55
2022-08-21T06:54:41.342Z,17.67
2022-08-21T06:59:47.940Z,17.79
2022-08-21T07:04:49.753Z,17.94
2022-08-21T07:09:53.949Z,18.05
2022-08-21T07:14:55.909Z,18.16
2022-08-21T07:20:00.215Z,18.28
2022-08-21T07:25:05.268Z,18.41
2022-08-21T07:30:10.274Z,18.56
2022-08-21T07:35:14.541Z,18.72
2022-08-21T07:40:18.112Z,18.88
2022-08-21T07:45:25.320Z,18.98
2022-08-21T07:50:30.490Z,19.06
2022-08-21T07:55:35.831Z,19.23
2022-08-21T08:00:43.417Z,19.29
2022-08-21T08:05:50.365Z,19.41
2022-08-21T08:10:58.299Z,19.50
2022-08-21T08:16:00.074Z,19.60
2022-08-21T08:21:01.850Z,19.76
2022-08-21T08:26:06.940Z,19.95
2022-08-21T08:31:11.830Z,20.01
2022-08-21T08:36:15.879Z,20.13
2022-08-21T08:41:22.660Z,20.33
2022-08-21T08:46:40.621Z,20.41
2022-08-21T08:51:55.819Z,20.48
2022-08-21T08:57:04.478Z,20.57
2022-08-21T09:02:06.749Z,20.64
2022-08-21T09:07:30.174Z,20.80
2022-08-21T09:12:41.015Z,20.92
2022-08-21T09:17:54.709Z,20.99
2022-08-21T09:23:10.895Z,21.17
2022-08-21T09:28:15.090Z,21.43
2022-08-21T09:33:22.413Z,21.64
2022-08-21T09:38:35.793Z,21.41
2022-08-21T09:43:41.032Z,21.49
2022-08-21T09:48:51.409Z,21.37
2022-08-21T09:54:01.558Z,21.55
2022-08-21T09:59:37.252Z,21.38
2022-08-21T10:04:40.253Z,21.86
2022-08-21T10:09:45.583Z,21.94
2022-08-21T10:14:56.791Z,21.71
2022-08-21T10:20:03.220Z,22.01
2022-08-21T10:25:27.634Z,22.21
2022-08-21T10:30:42.427Z,22.50
2022-08-21T10:36:19.253Z,22.50
2022-08-21T10:42:04.081Z,22.81
2022-08-21T10:47:12.020Z,22.46
2022-08-21T10:52:19.721Z,22.05
2022-08-21T10:57:49.093Z,21.91
2022-08-21T11:03:19.056Z,22.46
2022-08-21T11:08:38.268Z,22.78
2022-08-21T11:13:52.340Z,22.90
2022-08-21T11:19:03.726Z,23.08
2022-08-21T11:24:31.523Z,23.23
2022-08-21T11:29:36.858Z,23.34
2022-08-21T11:34:48.199Z,23.54
2022-08-21T11:39:59.575Z,23.83
2022-08-21T11:45:22.858Z,24.06
2022-08-21T11:50:36.096Z,24.05
2022-08-21T11:55:58.062Z,24.53
2022-08-21T12:01:12.620Z,24.70
2022-08-21T12:06:31.823Z,24.80
2022-08-21T12:12:02.556Z,25.12
2022-08-21T12:17:14.668Z,25.51
2022-08-21T12:22:18.459Z,26.02
2022-08-21T12:27:48.766Z,26.23
2022-08-21T12:33:18.657Z,25.54
2022-08-21T12:38:24.995Z,25.88
2022-08-21T12:43:33.082Z,26.15
2022-08-21T12:49:18.091Z,26.08
2022-08-21T12:54:32.022Z,26.19
2022-08-21T12:59:38.420Z,26.87
2022-08-21T13:04:41.401Z,26.83
2022-08-21T13:10:16.487Z,26.80
2022-08-21T13:15:26.558Z,26.92
2022-08-21T13:20:39.986Z,26.61
2022-08-21T13:25:41.929Z,26.19
2022-08-21T13:30:51.409Z,25.97
2022-08-21T13:36:05.753Z,25.71
2022-08-21T13:41:17.003Z,25.69
2022-08-21T13:46:22.974Z,25.44
2022-08-21T13:51:27.265Z,25.10
2022-08-21T13:56:37.349Z,24.80
2022-08-21T14:01:52.363Z,24.46
2022-08-21T14:06:58.989Z,24.26
2022-08-21T14:12:23.182Z,24.11
2022-08-21T14:17:33.948Z,23.98
2022-08-21T14:22:35.824Z,23.81
2022-08-21T14:27:45.673Z,23.67
2022-08-21T14:32:48.529Z,23.45
2022-08-21T14:37:55.040Z,23.30
2022-08-21T14:43:00.313Z,23.18
2022-08-21T14:48:05.460Z,23.13
2022-08-21T14:53:10.880Z,23.20
2022-08-21T14:58:15.719Z,23.26
2022-08-21T15:03:20.000Z,23.22
2022-08-21T15:08:21.871Z,23.07
2022-08-21T15:13:24.103Z,22.92
2022-08-21T15:18:28.165Z,22.83
2022-08-21T15:23:32.721Z,22.77
2022-08-21T15:28:35.506Z,22.75
2022-08-21T15:33:39.997Z,22.62
2022-08-21T15:38:54.193Z,22.59
2022-08-21T15:43:58.574Z,22.95
2022-08-21T15:49:05.146Z,24.05
2022-08-21T15:54:06.991Z,25.08
2022-08-21T15:59:22.823Z,24.59
2022-08-21T16:04:27.131Z,24.00
2022-08-21T16:09:30.890Z,23.54
2022-08-21T16:14:34.151Z,23.26
2022-08-21T16:19:37.308Z,23.42
2022-08-21T16:24:44.385Z,23.26
2022-08-21T16:29:47.030Z,23.14
2022-08-21T16:34:50.075Z,22.95
2022-08-21T16:39:55.115Z,22.71
2022-08-21T16:44:59.614Z,22.52
2022-08-21T16:50:06.532Z,22.36
2022-08-21T16:55:11.056Z,22.25
2022-08-21T17:00:14.660Z,22.15
2022-08-21T17:05:19.136Z,22.00
2022-08-21T17:10:23.440Z,22.09
2022-08-21T17:15:31.429Z,22.31
2022-08-21T17:44:46.270Z,21.37
2022-08-21T17:49:48.279Z,21.33
2022-08-21T17:54:50.895Z,21.28
2022-08-21T17:59:57.698Z,21.24
2022-08-21T18:09:40.987Z,21.75
2022-08-21T18:14:42.919Z,21.42
2022-08-21T18:19:49.003Z,21.23
2022-08-21T18:24:51.227Z,21.10
2022-08-21T18:29:55.337Z,21.11
2022-08-21T18:34:57.558Z,20.84
2022-08-21T18:39:59.703Z,20.60
2022-08-21T18:45:07.621Z,20.38
2022-08-21T18:50:12.473Z,20.22
2022-08-21T18:55:16.722Z,20.11
2022-08-21T19:00:31.906Z,20.04
2022-08-21T19:05:34.857Z,19.94
2022-08-21T19:10:39.389Z,19.84
2022-08-21T19:15:53.004Z,19.74
2022-08-21T19:20:55.020Z,19.64
2022-08-21T19:26:00.878Z,19.50
2022-08-21T19:31:16.429Z,19.44
2022-08-21T19:36:18.656Z,19.32
2022-08-21T19:41:24.213Z,19.23
2022-08-21T19:46:35.089Z,19.12
2022-08-21T19:51:37.032Z,19.06
2022-08-21T19:56:41.968Z,19.02
2022-08-21T20:01:43.968Z,18.93
2022-08-21T20:06:51.227Z,18.87
2022-08-21T20:11:58.313Z,18.81
2022-08-21T20:17:06.097Z,18.77
2022-08-21T20:22:10.634Z,18.75
2022-08-21T20:27:16.484Z,18.70
2022-08-21T20:32:22.633Z,18.68
2022-08-21T20:37:36.331Z,18.74
2022-08-21T20:42:47.246Z,18.57
2022-08-21T20:47:52.736Z,18.50
2022-08-21T20:53:07.386Z,18.52
2022-08-21T20:58:16.058Z,18.58
2022-08-21T21:03:30.335Z,18.59
2022-08-21T21:08:58.565Z,18.53
2022-08-21T21:14:13.704Z,18.49
2022-08-21T21:19:23.379Z,18.43
2022-08-21T21:24:33.454Z,18.37
2022-08-21T21:29:41.659Z,18.27
2022-08-21T21:34:45.441Z,18.24
2022-08-21T21:39:54.487Z,18.20
2022-08-21T21:45:20.633Z,18.19
2022-08-21T21:50:33.758Z,18.07
2022-08-21T21:56:27.500Z,18.08
2022-08-21T22:01:47.069Z,18.09
2022-08-21T22:07:17.627Z,18.11
2022-08-21T22:12:28.764Z,18.16
2022-08-21T22:17:45.102Z,18.17
2022-08-21T22:22:48.415Z,18.15
2022-08-21T22:27:59.663Z,18.14
2022-08-21T22:33:01.494Z,18.13
2022-08-21T22:38:18.459Z,18.12
2022-08-21T22:43:25.173Z,18.11
2022-08-21T22:53:59.187Z,18.02
2022-08-21T22:59:10.326Z,17.95
2022-08-21T23:04:22.121Z,17.93
2022-08-21T23:09:59.822Z,17.91
2022-08-21T23:15:12.559Z,17.87
2022-08-21T23:20:42.387Z,17.80
2022-08-21T23:26:01.885Z,17.68
2022-08-21T23:31:32.641Z,17.64
2022-08-21T23:37:00.109Z,17.61
2022-08-21T23:42:19.893Z,17.56
2022-08-21T23:47:51.029Z,17.49
2022-08-21T23:53:11.937Z,17.38
2022-08-21T23:58:18.474Z,17.29
